Time;durP1;ratioP1;P1;durP2;ratioP2;P2;SDS_P1;SDS_P2;PMS_P1;PMS_P2;Temp;Humidity;BMP_temperature;BMP_pressure;BME280_temperature;BME280_humidity;BME280_pressure;Samples;Min_cycle;Max_cycle;Signal;HPM_P1;HPM_P2
2022/11/18 00:01:17;;;;;;;;;0.00;0.00;;;;;11.16;92.88;99470.22;5032096;28;45439;-68
2022/11/18 00:03:43;;;;;;;;;1.00;0.00;;;;;11.28;93.15;99490.53;5032231;28;45534;-68
2022/11/18 00:06:28;;;;;;;;;0.50;0.50;;;;;11.22;93.77;99499.06;5031817;28;45424;-67
2022/11/18 00:08:54;;;;;;;;;1.00;1.00;;;;;11.27;93.36;99502.22;5031847;28;47604;-67
2022/11/18 00:14:22;;;;;;;;;1.00;1.00;;;;;11.23;93.25;99503.44;5030104;28;45357;-68
2022/11/18 00:16:53;;;;;;;;;2.00;1.00;;;;;11.25;92.96;99520.19;5030118;27;45512;-68
2022/11/18 00:19:22;;;;;;;;;0.50;0.50;;;;;11.30;92.88;99520.66;5030229;28;45719;-69
2022/11/18 00:21:48;;;;;;;;;0.75;0.25;;;;;10.93;93.11;99465.78;5029088;28;46643;-68
2022/11/18 00:24:14;;;;;;;;;1.00;1.00;;;;;10.82;93.08;99460.44;5029189;28;45509;-68
2022/11/18 00:26:39;;;;;;;;;0.00;0.00;;;;;11.19;93.33;99537.53;5029665;28;45388;-67
2022/11/18 00:29:05;;;;;;;;;2.00;0.00;;;;;11.18;93.59;99535.84;5029569;28;46309;-68
2022/11/18 00:31:31;;;;;;;;;0.00;0.00;;;;;11.05;93.86;99519.13;5030584;28;45482;-68
2022/11/18 00:33:56;;;;;;;;;0.50;0.00;;;;;11.16;93.30;99531.59;5030271;28;45543;-68
2022/11/18 00:36:21;;;;;;;;;0.00;0.00;;;;;11.17;93.74;99551.97;5029655;28;45751;-68
2022/11/18 00:38:47;;;;;;;;;1.50;0.00;;;;;11.12;93.27;99541.69;5029589;27;46280;-68
2022/11/18 00:41:14;;;;;;;;;2.00;0.00;;;;;11.19;93.62;99564.22;5029240;28;45777;-68
2022/11/18 00:43:40;;;;;;;;;0.00;0.00;;;;;11.20;92.82;99557.94;5029700;28;45488;-68
2022/11/18 00:46:08;;;;;;;;;0.75;0.00;;;;;11.20;93.09;99570.41;5029870;28;45763;-68
2022/11/18 00:48:34;;;;;;;;;2.25;1.00;;;;;11.13;92.82;99558.53;5029429;28;45558;-68
2022/11/18 00:51:09;;;;;;;;;0.00;0.00;;;;;11.09;93.81;99574.81;5011692;28;45432;-68
2022/11/18 00:53:34;;;;;;;;;2.00;0.00;;;;;11.11;93.47;99572.84;5029988;28;45612;-68
2022/11/18 00:55:59;;;;;;;;;0.00;0.00;;;;;11.12;93.13;99568.38;5029792;27;45749;-69
2022/11/18 00:58:25;;;;;;;;;2.00;0.00;;;;;11.13;93.00;99579.91;5029860;28;45458;-68
2022/11/18 01:00:51;;;;;;;;;0.00;0.00;;;;;10.12;93.38;99424.22;5041720;28;45406;-68
2022/11/18 01:03:18;;;;;;;;;0.00;0.00;;;;;11.05;94.06;99577.84;5051690;28;46011;-68
2022/11/18 01:05:43;;;;;;;;;1.00;1.00;;;;;11.08;93.64;99582.91;5053240;28;45331;-68
2022/11/18 01:08:10;;;;;;;;;0.00;0.00;;;;;11.08;93.08;99586.44;5053046;28;47393;-68
2022/11/18 01:10:37;;;;;;;;;0.00;0.00;;;;;11.08;93.37;99582.91;5053209;28;45721;-68
2022/11/18 01:13:19;;;;;;;;;1.50;0.50;;;;;10.66;92.91;99527.53;5115334;27;45480;-68
2022/11/18 01:15:51;;;;;;;;;0.00;0.00;;;;;11.00;93.96;99596.88;5017080;28;45590;-68
2022/11/18 01:18:18;;;;;;;;;0.00;0.00;;;;;11.00;93.35;99591.56;5032744;28;46452;-68
2022/11/18 01:20:45;;;;;;;;;0.00;0.00;;;;;11.03;93.69;99590.47;5032856;28;45435;-68
2022/11/18 01:23:11;;;;;;;;;0.00;0.00;;;;;10.55;93.88;99530.19;5033022;28;45747;-68
2022/11/18 01:25:38;;;;;;;;;1.25;1.00;;;;;10.88;93.05;99568.53;5031374;28;45512;-68
2022/11/18 01:28:04;;;;;;;;;0.00;0.00;;;;;11.08;93.05;99591.78;5014181;28;47456;-68
2022/11/18 01:30:33;;;;;;;;;0.00;0.00;;;;;11.01;92.50;99584.38;5031987;28;45394;-68
2022/11/18 01:32:58;;;;;;;;;0.00;0.00;;;;;11.06;92.26;99609.72;5032533;28;45377;-68
2022/11/18 01:35:24;;;;;;;;;0.00;0.00;;;;;11.01;93.19;99611.06;5032687;28;45566;-68
2022/11/18 01:37:49;;;;;;;;;0.00;0.00;;;;;11.06;93.40;99615.06;5032253;27;45592;-68
2022/11/18 01:40:15;;;;;;;;;0.00;0.00;;;;;11.05;93.18;99613.41;5033078;28;45390;-68
2022/11/18 01:42:40;;;;;;;;;0.00;0.00;;;;;11.09;93.58;99612.19;5033414;28;45642;-68
2022/11/18 01:45:13;;;;;;;;;0.00;0.00;;;;;11.10;92.63;99613.84;5033317;28;45671;-68
2022/11/18 01:47:50;;;;;;;;;0.00;0.00;;;;;11.08;93.00;99612.28;5033527;28;47231;-68
2022/11/18 01:50:19;;;;;;;;;0.00;0.00;;;;;11.06;93.20;99612.41;5032564;28;45437;-68
2022/11/18 01:52:46;;;;;;;;;0.00;0.00;;;;;11.07;92.64;99622.09;5032432;28;45424;-68
2022/11/18 01:55:18;;;;;;;;;0.00;0.00;;;;;11.02;93.26;99618.13;5032450;28;45502;-68
2022/11/18 01:57:47;;;;;;;;;0.00;0.00;;;;;10.99;94.04;99621.88;5031887;28;47657;-68
2022/11/18 02:00:13;;;;;;;;;0.25;0.00;;;;;11.04;93.18;99629.50;5032377;28;45441;-69
2022/11/18 02:02:38;;;;;;;;;0.00;0.00;;;;;10.89;93.05;99618.22;5032149;28;45619;-68
2022/11/18 02:05:06;;;;;;;;;0.00;0.00;;;;;11.02;93.07;99632.28;5014069;28;45411;-68
2022/11/18 02:07:38;;;;;;;;;0.50;0.00;;;;;10.94;93.20;99632.06;5030178;28;47212;-68
2022/11/18 02:10:06;;;;;;;;;0.00;0.00;;;;;10.86;93.94;99626.47;5030868;28;45352;-68
2022/11/18 02:12:32;;;;;;;;;0.00;0.00;;;;;10.92;93.70;99626.00;5032282;28;45703;-68
2022/11/18 02:14:59;;;;;;;;;0.00;0.00;;;;;11.01;93.37;99640.44;5032272;28;45713;-68
2022/11/18 02:18:09;;;;;;;;;0.00;0.00;;;;;10.86;93.21;99621.13;5032131;28;47516;-68
2022/11/18 02:20:40;;;;;;;;;0.00;0.00;;;;;11.01;93.43;99649.25;5059010;28;45493;-68
2022/11/18 02:23:15;;;;;;;;;0.00;0.00;;;;;10.97;92.59;99645.13;5072875;28;45417;-68
2022/11/18 02:25:53;;;;;;;;;1.25;0.00;;;;;10.94;92.79;99651.59;5056118;28;45499;-68
2022/11/18 02:28:34;;;;;;;;;0.00;0.00;;;;;10.96;93.11;99658.59;5051918;28;45723;-68
2022/11/18 02:31:03;;;;;;;;;1.00;0.00;;;;;10.84;92.57;99633.75;5051538;28;45370;-68
2022/11/18 02:34:02;;;;;;;;;0.00;0.00;;;;;10.93;93.01;99657.91;5053607;28;45412;-68
2022/11/18 02:36:37;;;;;;;;;1.00;0.00;;;;;10.94;92.75;99661.41;5045517;28;45452;-68
2022/11/18 02:39:07;;;;;;;;;1.00;0.00;;;;;10.62;92.97;99611.41;5036137;28;48008;-68
2022/11/18 02:41:35;;;;;;;;;0.00;0.00;;;;;10.93;92.87;99657.03;5052808;28;45406;-68
2022/11/18 02:44:08;;;;;;;;;0.00;0.00;;;;;10.89;92.99;99663.56;5053430;28;45389;-68
2022/11/18 02:46:38;;;;;;;;;0.00;0.00;;;;;10.83;93.05;99656.06;5053623;28;45475;-68
2022/11/18 02:49:11;;;;;;;;;1.75;0.00;;;;;10.88;93.18;99656.56;5053724;28;46406;-68
2022/11/18 02:51:38;;;;;;;;;0.00;0.00;;;;;10.88;92.92;99667.22;5039922;28;45618;-68
2022/11/18 02:54:07;;;;;;;;;0.00;0.00;;;;;10.82;93.39;99671.19;5031810;28;45426;-68
2022/11/18 02:56:34;;;;;;;;;0.00;0.00;;;;;10.79;93.13;99663.44;5031893;28;45554;-69
2022/11/18 02:58:59;;;;;;;;;0.00;0.00;;;;;10.81;92.89;99674.00;5030952;28;46085;-67
2022/11/18 03:01:28;;;;;;;;;1.00;0.00;;;;;10.79;93.72;99662.59;5032081;28;45706;-68
2022/11/18 03:03:54;;;;;;;;;0.00;0.00;;;;;10.82;92.64;99665.88;5032496;28;45770;-67
2022/11/18 03:06:29;;;;;;;;;2.00;0.00;;;;;10.79;93.15;99670.59;5032500;28;45554;-68
2022/11/18 03:09:17;;;;;;;;;0.00;0.00;;;;;10.73;93.17;99678.13;5032380;28;45460;-68
2022/11/18 03:11:51;;;;;;;;;0.00;0.00;;;;;10.69;93.90;99673.97;5031625;28;45495;-68
2022/11/18 03:14:24;;;;;;;;;1.00;0.00;;;;;10.69;93.72;99679.31;5032719;28;45771;-68
2022/11/18 03:17:18;;;;;;;;;0.25;0.00;;;;;10.65;94.14;99680.53;5032347;28;45542;-68
2022/11/18 03:19:55;;;;;;;;;0.00;0.00;;;;;10.63;94.17;99679.78;5024871;28;45669;-68
2022/11/18 03:22:29;;;;;;;;;0.00;0.00;;;;;10.68;93.73;99692.78;5014231;28;45647;-68
2022/11/18 03:25:04;;;;;;;;;0.00;0.00;;;;;10.67;94.01;99680.41;5032569;28;45559;-68
2022/11/18 03:27:41;;;;;;;;;0.00;0.00;;;;;10.67;93.41;99691.91;5032518;28;45445;-69
2022/11/18 03:30:11;;;;;;;;;0.75;0.00;;;;;10.73;93.21;99695.91;5032404;28;46219;-67
2022/11/18 03:32:41;;;;;;;;;1.00;0.00;;;;;10.69;93.65;99695.31;5032769;28;45450;-68
2022/11/18 03:35:30;;;;;;;;;0.50;0.00;;;;;10.66;93.30;99703.56;5032361;28;45344;-68
2022/11/18 03:38:04;;;;;;;;;0.00;0.00;;;;;10.74;93.33;99703.81;5032204;28;45662;-69
2022/11/18 03:40:32;;;;;;;;;0.00;0.00;;;;;10.69;93.10;99716.66;5032228;28;46485;-68
2022/11/18 03:43:04;;;;;;;;;0.00;0.00;;;;;10.68;93.25;99722.13;5032121;28;45450;-68
2022/11/18 03:45:36;;;;;;;;;0.00;0.00;;;;;10.70;92.91;99725.50;5032446;28;45723;-68
2022/11/18 03:48:17;;;;;;;;;0.00;0.00;;;;;10.74;93.02;99719.84;5032067;28;45388;-68
2022/11/18 03:51:12;;;;;;;;;0.00;0.00;;;;;10.80;92.98;99722.97;5032241;28;45398;-68
2022/11/18 03:53:48;;;;;;;;;0.75;0.00;;;;;10.76;92.79;99727.72;5029801;28;45602;-68
2022/11/18 03:56:23;;;;;;;;;0.00;0.00;;;;;10.75;92.51;99726.84;5031771;27;45400;-68
2022/11/18 03:58:59;;;;;;;;;0.00;0.00;;;;;10.69;93.36;99734.47;5031911;28;45451;-68
2022/11/18 04:01:50;;;;;;;;;2.00;0.00;;;;;10.72;92.98;99732.41;5031748;27;45473;-68
2022/11/18 04:04:16;;;;;;;;;0.00;0.00;;;;;10.72;92.91;99736.91;5023282;28;45358;-68
2022/11/18 04:06:47;;;;;;;;;0.00;0.00;;;;;10.36;93.31;99685.41;5031646;28;45476;-68
2022/11/18 04:09:44;;;;;;;;;0.00;0.00;;;;;10.68;93.33;99749.63;5032141;28;45321;-68
2022/11/18 04:12:17;;;;;;;;;0.75;0.00;;;;;10.71;93.37;99745.88;5030681;28;46913;-68
2022/11/18 04:14:44;;;;;;;;;0.00;0.00;;;;;10.54;92.96;99720.47;5026718;28;45357;-68
2022/11/18 04:17:19;;;;;;;;;0.75;0.00;;;;;10.73;92.78;99770.59;5050498;28;45531;-68
2022/11/18 04:19:45;;;;;;;;;0.00;0.00;;;;;10.73;92.83;99770.59;5052019;28;45339;-68
2022/11/18 04:22:11;;;;;;;;;0.75;0.00;;;;;10.73;92.91;99776.81;5051736;28;46309;-68
2022/11/18 04:24:36;;;;;;;;;0.00;0.00;;;;;10.73;92.97;99782.13;5120372;27;45464;-68
2022/11/18 04:27:02;;;;;;;;;0.00;0.00;;;;;10.72;92.72;99783.09;5051966;28;45438;-68
2022/11/18 04:29:28;;;;;;;;;0.00;0.00;;;;;10.74;92.79;99782.97;5051931;28;45563;-68
2022/11/18 04:31:54;;;;;;;;;0.75;0.75;;;;;10.79;92.24;99785.31;5051637;28;45528;-68
2022/11/18 04:34:19;;;;;;;;;0.00;0.00;;;;;10.83;93.12;99789.47;5053164;27;45517;-68
2022/11/18 04:36:44;;;;;;;;;0.00;0.00;;;;;10.84;92.36;99804.50;5054328;28;45464;-68
2022/11/18 04:39:10;;;;;;;;;0.00;0.00;;;;;10.80;91.95;99787.00;5054143;28;45483;-68
2022/11/18 04:44:20;;;;;;;;;0.75;0.00;;;;;10.73;92.65;99806.16;5054798;28;45339;-68
2022/11/18 04:46:45;;;;;;;;;2.00;0.00;;;;;10.67;92.68;99801.25;5053057;28;45388;-68
2022/11/18 04:49:12;;;;;;;;;0.75;0.00;;;;;10.72;92.36;99811.59;5036039;28;45356;-68
2022/11/18 04:51:41;;;;;;;;;0.25;0.00;;;;;10.71;92.09;99813.41;5054398;28;47271;-68
2022/11/18 04:54:07;;;;;;;;;1.25;0.25;;;;;10.68;92.59;99804.81;5053846;28;45408;-68
2022/11/18 04:56:33;;;;;;;;;0.00;0.00;;;;;10.59;92.73;99811.66;5054234;28;45474;-68
2022/11/18 04:59:00;;;;;;;;;0.00;0.00;;;;;10.58;92.94;99809.94;5054096;28;45394;-68
2022/11/18 05:01:26;;;;;;;;;0.00;0.00;;;;;10.59;92.94;99806.31;5054122;28;45742;-68
2022/11/18 05:03:52;;;;;;;;;0.00;0.00;;;;;10.58;92.51;99810.81;5055141;27;45296;-68
2022/11/18 05:06:17;;;;;;;;;0.50;0.00;;;;;10.62;92.57;99816.75;5052834;28;45702;-68
2022/11/18 05:08:43;;;;;;;;;1.50;1.00;;;;;10.57;92.46;99816.25;5054893;28;45459;-68
2022/11/18 05:13:52;;;;;;;;;0.00;0.00;;;;;10.23;92.04;99765.38;5040282;28;45446;-68
2022/11/18 05:16:18;;;;;;;;;0.00;0.00;;;;;10.60;92.09;99821.38;5015992;28;45526;-68
2022/11/18 05:18:43;;;;;;;;;0.00;0.00;;;;;10.56;92.27;99828.72;5034367;28;45691;-68
2022/11/18 05:21:09;;;;;;;;;0.00;0.00;;;;;10.55;92.29;99829.72;5033703;28;46422;-68
2022/11/18 05:23:34;;;;;;;;;0.00;0.00;;;;;10.53;91.93;99839.63;5034079;28;45285;-68
2022/11/18 05:26:07;;;;;;;;;1.75;0.00;;;;;10.58;92.02;99841.94;5033722;28;45437;-68
2022/11/18 05:28:32;;;;;;;;;0.00;0.00;;;;;10.52;92.08;99842.41;5033637;28;45632;-68
2022/11/18 05:30:58;;;;;;;;;0.00;0.00;;;;;10.53;91.86;99844.97;5033894;27;46271;-68
2022/11/18 05:33:23;;;;;;;;;1.00;0.00;;;;;10.18;91.68;99783.53;5033533;28;45399;-68
2022/11/18 05:35:49;;;;;;;;;1.00;0.00;;;;;10.58;91.29;99847.28;5033709;27;45337;-68
2022/11/18 05:38:14;;;;;;;;;3.75;0.00;;;;;10.57;90.85;99845.59;5035701;28;45372;-68
2022/11/18 05:40:42;;;;;;;;;1.00;0.00;;;;;10.58;90.95;99849.94;5054111;28;46779;-67
2022/11/18 05:43:12;;;;;;;;;1.00;1.00;;;;;10.58;91.16;99858.81;5053717;28;45529;-68
2022/11/18 05:45:42;;;;;;;;;1.25;0.00;;;;;10.54;90.99;99843.13;5053841;28;45383;-68
2022/11/18 05:48:08;;;;;;;;;0.75;0.50;;;;;10.66;90.41;99854.72;5053670;28;45490;-68
2022/11/18 05:50:36;;;;;;;;;0.00;0.00;;;;;10.54;90.43;99844.00;5053212;28;46355;-67
2022/11/18 05:53:03;;;;;;;;;0.00;0.00;;;;;10.56;90.25;99863.41;5053850;28;45375;-68
2022/11/18 05:55:50;;;;;;;;;0.00;0.00;;;;;10.59;90.17;99867.66;5052551;27;45367;-68
2022/11/18 05:58:16;;;;;;;;;0.00;0.00;;;;;10.21;89.91;99825.97;5053420;28;45449;-69
2022/11/18 06:00:43;;;;;;;;;1.00;1.00;;;;;10.48;90.68;99888.94;5122536;27;47372;-68
2022/11/18 06:03:18;;;;;;;;;1.00;1.00;;;;;10.50;90.51;99874.53;5053212;28;45400;-68
2022/11/18 06:05:44;;;;;;;;;1.50;1.50;;;;;10.47;89.70;99871.22;5053127;28;45430;-67
2022/11/18 06:08:13;;;;;;;;;0.00;0.00;;;;;10.48;90.37;99896.94;5053146;27;45465;-67
2022/11/18 06:10:42;;;;;;;;;1.00;1.00;;;;;10.47;90.20;99892.56;5052874;28;47430;-67
2022/11/18 06:13:13;;;;;;;;;0.00;0.00;;;;;10.42;89.91;99893.75;5045585;28;45441;-67
2022/11/18 06:15:42;;;;;;;;;1.25;0.00;;;;;10.43;89.95;99897.25;5033021;28;45537;-67
2022/11/18 06:18:19;;;;;;;;;0.25;0.25;;;;;10.07;90.48;99841.13;5032872;28;45512;-67
2022/11/18 06:20:45;;;;;;;;;1.00;1.00;;;;;10.50;90.14;99900.31;5032077;28;47213;-67
2022/11/18 06:23:11;;;;;;;;;0.50;0.50;;;;;10.28;89.57;99880.50;5033090;28;45635;-67
2022/11/18 06:25:39;;;;;;;;;0.75;0.75;;;;;10.44;90.05;99913.13;5032455;28;45432;-67
2022/11/18 06:28:05;;;;;;;;;0.25;0.25;;;;;10.49;89.86;99917.31;5032751;28;45656;-67
2022/11/18 06:30:30;;;;;;;;;0.75;0.75;;;;;10.52;90.35;99920.59;5031144;28;47098;-67
2022/11/18 06:32:55;;;;;;;;;1.25;0.75;;;;;10.51;89.43;99928.69;5030943;27;45491;-67
2022/11/18 06:35:21;;;;;;;;;0.00;0.00;;;;;9.75;89.73;99811.44;5032923;28;45402;-67
2022/11/18 06:37:46;;;;;;;;;1.00;1.00;;;;;10.47;89.10;99925.41;5032334;28;45670;-66
2022/11/18 06:40:12;;;;;;;;;1.50;0.75;;;;;10.36;89.21;99907.50;5032147;27;45847;-67
2022/11/18 06:45:21;;;;;;;;;6.00;2.25;;;;;10.49;89.31;99950.16;5032648;28;45671;-67
2022/11/18 06:47:46;;;;;;;;;2.00;2.00;;;;;9.97;88.70;99869.38;5032218;28;45348;-67
2022/11/18 06:50:12;;;;;;;;;3.00;3.00;;;;;10.32;88.70;99919.31;5032650;27;46584;-67
2022/11/18 06:52:37;;;;;;;;;3.00;1.50;;;;;10.46;89.40;99946.84;5032378;28;45483;-67
2022/11/18 06:55:06;;;;;;;;;2.50;1.50;;;;;10.40;88.91;99951.66;5031098;28;45388;-67
2022/11/18 06:57:31;;;;;;;;;2.00;2.00;;;;;10.32;89.31;99956.63;5031802;27;45441;-68
2022/11/18 06:59:57;;;;;;;;;2.00;2.00;;;;;10.29;89.52;99964.88;5032069;27;45553;-64
2022/11/18 07:02:22;;;;;;;;;1.00;1.00;;;;;10.22;89.26;99958.28;5031964;27;45358;-66
2022/11/18 07:04:47;;;;;;;;;2.00;2.00;;;;;9.69;89.56;99881.09;5032305;28;45535;-66
2022/11/18 07:07:13;;;;;;;;;1.00;1.00;;;;;10.24;89.87;99975.00;5031982;28;45444;-67
2022/11/18 07:09:38;;;;;;;;;1.00;1.00;;;;;10.20;89.55;99970.84;5032256;28;47029;-68
2022/11/18 07:12:04;;;;;;;;;0.50;0.50;;;;;10.19;89.98;99985.13;5032626;28;47707;-68
2022/11/18 07:14:30;;;;;;;;;3.00;2.00;;;;;10.14;89.75;99976.63;5027484;28;45396;-68
2022/11/18 07:16:55;;;;;;;;;0.00;0.00;;;;;10.22;89.71;99988.44;5012414;28;45395;-68
2022/11/18 07:19:20;;;;;;;;;1.00;1.00;;;;;10.17;89.40;99993.22;5012330;28;45379;-68
2022/11/18 07:21:46;;;;;;;;;0.00;0.00;;;;;10.15;89.50;100000.50;5012208;28;45573;-68
2022/11/18 07:24:13;;;;;;;;;1.50;1.50;;;;;10.13;90.03;100002.41;5012675;28;45407;-68
2022/11/18 07:26:39;;;;;;;;;1.75;1.00;;;;;10.14;89.85;100004.09;5012226;28;45492;-68
2022/11/18 07:29:04;;;;;;;;;2.00;2.00;;;;;10.10;89.96;100007.94;5012047;28;45502;-67
2022/11/18 07:31:30;;;;;;;;;0.75;0.75;;;;;10.14;90.14;100013.94;5012798;28;45499;-67
2022/11/18 07:33:56;;;;;;;;;2.00;2.00;;;;;9.93;90.19;99985.09;5012316;28;45633;-68
2022/11/18 07:36:24;;;;;;;;;2.50;2.50;;;;;10.17;89.77;100024.38;5012595;28;45816;-68
2022/11/18 07:38:50;;;;;;;;;2.75;1.75;;;;;10.19;89.99;100033.09;5012950;28;47165;-67
2022/11/18 07:41:24;;;;;;;;;3.00;2.00;;;;;9.73;90.32;99974.03;5011704;28;45534;-65
2022/11/18 07:43:50;;;;;;;;;2.75;1.50;;;;;10.06;90.42;100033.94;5011743;28;45353;-68
2022/11/18 07:46:24;;;;;;;;;5.50;1.75;;;;;10.12;90.70;100040.66;5011964;28;45582;-68
2022/11/18 07:48:51;;;;;;;;;3.00;2.00;;;;;10.19;90.06;100043.75;5011713;28;45481;-68
2022/11/18 07:51:19;;;;;;;;;0.75;0.75;;;;;10.19;90.39;100039.28;5011401;28;45613;-68
2022/11/18 07:53:45;;;;;;;;;3.00;2.00;;;;;10.17;90.80;100043.03;5011870;28;45828;-68
2022/11/18 07:56:11;;;;;;;;;3.75;2.00;;;;;10.14;90.55;100051.25;5011617;27;45372;-67
2022/11/18 07:58:36;;;;;;;;;0.50;0.50;;;;;10.21;90.87;100058.69;5011511;28;45555;-68
2022/11/18 08:01:13;;;;;;;;;3.00;1.00;;;;;10.27;90.43;100071.59;5011569;28;45649;-68
2022/11/18 08:03:39;;;;;;;;;4.75;2.25;;;;;10.38;90.17;100070.91;5011880;28;45334;-67
2022/11/18 08:06:07;;;;;;;;;5.50;4.00;;;;;10.48;89.83;100067.59;5011342;28;45541;-67
2022/11/18 08:08:32;;;;;;;;;13.50;12.50;;;;;10.41;89.61;100044.00;5029184;27;45899;-67
2022/11/18 08:11:00;;;;;;;;;5.00;4.00;;;;;10.68;89.56;100069.72;5014385;28;45470;-67
2022/11/18 08:13:26;;;;;;;;;2.75;2.75;;;;;10.75;89.24;100078.97;5011034;28;45418;-67
2022/11/18 08:15:53;;;;;;;;;2.00;2.00;;;;;10.77;88.30;100081.56;5034136;28;45550;-67
2022/11/18 08:18:18;;;;;;;;;4.00;2.50;;;;;10.71;88.16;100061.47;5033986;28;46515;-67
2022/11/18 08:20:44;;;;;;;;;3.50;2.25;;;;;10.57;87.87;100038.47;5034318;28;45391;-68
2022/11/18 08:23:10;;;;;;;;;2.25;1.00;;;;;10.53;88.63;100058.31;5016458;28;45491;-67
2022/11/18 08:25:35;;;;;;;;;2.50;2.50;;;;;10.65;88.68;100072.59;5034322;28;45828;-67
2022/11/18 08:28:01;;;;;;;;;2.00;1.00;;;;;10.80;88.47;100081.34;5033837;28;46141;-67
2022/11/18 08:30:26;;;;;;;;;2.50;1.00;;;;;10.88;88.14;100072.78;5016277;28;45441;-67
2022/11/18 08:32:51;;;;;;;;;2.50;1.00;;;;;10.89;87.74;100077.16;5034201;28;45450;-67
2022/11/18 08:35:16;;;;;;;;;2.00;1.50;;;;;11.03;87.44;100081.50;5034239;28;45475;-68
2022/11/18 08:37:42;;;;;;;;;2.75;1.50;;;;;11.14;86.47;100067.41;5016010;27;45629;-68
2022/11/18 08:40:08;;;;;;;;;3.00;1.25;;;;;11.60;84.88;100064.00;5033866;28;45503;-68
2022/11/18 08:42:33;;;;;;;;;8.00;6.50;;;;;11.44;83.62;100040.25;5016398;28;45849;-67
2022/11/18 08:44:59;;;;;;;;;4.25;3.00;;;;;11.43;84.44;100079.47;5034645;28;45422;-67
2022/11/18 08:47:24;;;;;;;;;7.00;5.00;;;;;11.43;84.83;100079.47;5033968;27;45418;-66
2022/11/18 08:49:49;;;;;;;;;12.75;11.50;;;;;11.69;84.00;100089.19;5033715;28;45542;-66
2022/11/18 08:52:15;;;;;;;;;3.75;3.00;;;;;11.71;84.20;100085.41;5033866;28;45667;-67
2022/11/18 08:54:40;;;;;;;;;2.00;2.00;;;;;11.66;83.97;100079.59;5034104;28;45862;-66
2022/11/18 08:57:05;;;;;;;;;3.00;2.25;;;;;11.69;84.10;100090.03;5033723;28;45888;-67
2022/11/18 08:59:31;;;;;;;;;2.75;1.50;;;;;11.61;83.15;100074.56;5034060;28;45367;-66
2022/11/18 09:01:57;;;;;;;;;2.50;2.50;;;;;12.00;84.17;100097.59;5033112;28;45522;-66
2022/11/18 09:04:22;;;;;;;;;1.00;1.00;;;;;12.60;80.80;100091.16;5033245;28;45364;-66
2022/11/18 09:06:47;;;;;;;;;1.50;1.50;;;;;12.69;78.83;100089.63;5032922;28;46136;-66
2022/11/18 09:09:12;;;;;;;;;1.50;0.50;;;;;12.42;79.71;100089.94;5033031;28;45454;-67
2022/11/18 09:11:39;;;;;;;;;1.25;0.75;;;;;12.28;80.87;100091.00;5032857;28;45348;-67
2022/11/18 09:14:04;;;;;;;;;1.00;1.00;;;;;11.97;80.85;100050.59;5014487;27;45453;-66
2022/11/18 09:16:32;;;;;;;;;2.50;1.25;;;;;12.28;81.14;100081.16;5032407;28;45514;-66
2022/11/18 09:18:59;;;;;;;;;2.00;1.00;;;;;12.50;79.73;100094.69;5032664;28;45694;-66
2022/11/18 09:21:25;;;;;;;;;1.50;1.50;;;;;12.42;79.77;100101.50;5032599;28;45560;-66
2022/11/18 09:23:51;;;;;;;;;1.00;1.00;;;;;12.17;80.46;100082.97;5032754;28;45304;-67
2022/11/18 09:26:19;;;;;;;;;1.50;0.00;;;;;12.44;80.65;100109.38;5013931;28;48244;-67
2022/11/18 09:28:46;;;;;;;;;2.00;1.00;;;;;11.97;79.87;100050.59;5031625;28;45437;-67
2022/11/18 09:31:14;;;;;;;;;0.75;0.75;;;;;12.35;81.76;100113.63;5032437;28;45773;-68
2022/11/18 09:33:39;;;;;;;;;0.00;0.00;;;;;12.50;80.96;100121.44;5032583;28;45545;-67
2022/11/18 09:36:14;;;;;;;;;3.00;1.25;;;;;12.49;80.63;100117.06;5031910;28;46007;-67
2022/11/18 09:38:40;;;;;;;;;0.00;0.00;;;;;12.37;80.21;100117.03;5032243;28;45571;-67
2022/11/18 09:41:08;;;;;;;;;1.00;1.00;;;;;12.28;80.44;100118.59;5032146;28;45451;-68
2022/11/18 09:43:49;;;;;;;;;0.25;0.25;;;;;12.32;80.69;100119.19;5031162;28;45476;-66
2022/11/18 09:46:34;;;;;;;;;0.75;0.00;;;;;12.07;80.39;100089.00;5032150;28;46222;-66
2022/11/18 09:49:12;;;;;;;;;1.75;0.50;;;;;12.47;81.56;100125.22;5032206;28;45686;-66
2022/11/18 09:51:49;;;;;;;;;0.50;0.50;;;;;12.58;80.19;100130.59;5032447;28;45494;-67
2022/11/18 09:54:35;;;;;;;;;1.50;1.50;;;;;12.69;79.10;100127.06;5031905;28;45539;-67
2022/11/18 09:57:01;;;;;;;;;0.00;0.00;;;;;12.64;78.59;100110.53;5031605;28;46444;-66
2022/11/18 09:59:30;;;;;;;;;1.00;0.50;;;;;12.88;79.26;100128.31;5032051;28;45447;-67
2022/11/18 10:03:32;;;;;;;;;0.75;0.00;;;;;12.79;78.33;100132.56;5133297;27;45390;-67
2022/11/18 10:06:12;;;;;;;;;0.75;0.75;;;;;12.78;78.52;100133.50;5112614;27;45337;-67
2022/11/18 10:09:16;;;;;;;;;1.33;0.00;;;;;12.84;78.32;100135.72;5112938;27;45383;-67
2022/11/18 10:12:00;;;;;;;;;1.00;1.00;;;;;12.96;79.21;100123.19;5113719;27;45427;-67
2022/11/18 10:14:38;;;;;;;;;0.75;0.75;;;;;13.17;77.71;100141.19;5112697;27;45447;-67
2022/11/18 10:17:15;;;;;;;;;2.00;0.00;;;;;13.15;76.91;100129.78;5112768;27;45484;-67
2022/11/18 10:20:17;;;;;;;;;2.00;1.00;;;;;13.42;77.68;100146.31;5111479;27;45502;-68
2022/11/18 10:23:02;;;;;;;;;0.00;0.00;;;;;13.55;76.28;100139.97;5089584;27;45414;-67
2022/11/18 10:25:27;;;;;;;;;1.00;1.00;;;;;13.60;75.31;100140.44;5089294;27;46703;-67
2022/11/18 10:27:55;;;;;;;;;0.00;0.00;;;;;13.69;75.23;100144.22;5089501;27;45413;-67
2022/11/18 10:30:22;;;;;;;;;0.50;0.50;;;;;13.65;74.86;100132.88;5072409;27;45438;-67
2022/11/18 10:33:01;;;;;;;;;2.25;1.50;;;;;13.68;75.46;100142.50;5089706;27;45659;-68
2022/11/18 10:35:33;;;;;;;;;0.50;0.50;;;;;13.61;74.62;100132.28;5088792;27;47124;-67
2022/11/18 10:38:00;;;;;;;;;0.75;0.75;;;;;13.58;74.62;100129.84;5088996;27;45627;-66
2022/11/18 10:40:28;;;;;;;;;2.00;1.00;;;;;13.78;74.98;100155.03;5089315;27;45700;-67
2022/11/18 10:42:54;;;;;;;;;1.25;1.00;;;;;13.91;74.22;100140.59;5089220;27;45561;-67
2022/11/18 10:45:22;;;;;;;;;0.33;0.00;;;;;14.04;74.44;100152.00;5089074;27;45404;-68
2022/11/18 10:48:13;;;;;;;;;1.00;0.00;;;;;14.04;73.13;100146.66;5089031;27;45428;-66
2022/11/18 10:50:43;;;;;;;;;1.00;1.00;;;;;14.17;73.45;100148.31;5084077;27;45467;-66
2022/11/18 10:53:34;;;;;;;;;1.00;1.00;;;;;14.18;73.65;100148.16;5088512;27;45486;-68
2022/11/18 10:56:03;;;;;;;;;1.00;0.50;;;;;13.98;72.97;100138.25;5088280;27;45479;-66
2022/11/18 10:58:30;;;;;;;;;0.25;0.00;;;;;13.58;72.88;100096.88;5091251;27;45489;-65
2022/11/18 11:01:14;;;;;;;;;2.50;1.50;;;;;13.84;74.47;100150.16;5111598;27;45421;-66
2022/11/18 11:03:42;;;;;;;;;1.50;1.50;;;;;13.87;74.08;100141.84;5111998;27;45470;-66
2022/11/18 11:06:25;;;;;;;;;2.00;0.33;;;;;14.02;73.81;100140.56;5112483;27;46524;-66
2022/11/18 11:08:53;;;;;;;;;0.67;0.67;;;;;14.14;73.68;100144.03;5112133;27;45522;-66
2022/11/18 11:11:28;;;;;;;;;0.25;0.25;;;;;14.36;72.54;100151.16;5113358;27;45431;-67
2022/11/18 11:14:01;;;;;;;;;0.67;0.67;;;;;14.58;72.62;100149.31;5104148;27;45439;-68
2022/11/18 11:16:29;;;;;;;;;0.00;0.00;;;;;14.67;70.82;100145.88;5098060;27;46040;-68
2022/11/18 11:19:00;;;;;;;;;2.50;1.00;;;;;14.63;70.74;100145.28;5098097;27;45456;-66
2022/11/18 11:21:26;;;;;;;;;1.33;1.00;;;;;14.62;71.34;100148.06;5096183;27;45382;-67
2022/11/18 11:23:52;;;;;;;;;3.25;2.00;;;;;14.47;71.29;100153.75;5098065;27;45379;-68
2022/11/18 11:26:17;;;;;;;;;0.00;0.00;;;;;14.37;71.48;100154.69;5097945;27;45569;-67
2022/11/18 11:29:04;;;;;;;;;0.00;0.00;;;;;14.31;70.86;100148.00;5098002;27;45526;-67
2022/11/18 11:31:50;;;;;;;;;1.00;1.00;;;;;14.27;71.33;100144.72;5098072;27;45454;-67
2022/11/18 11:34:33;;;;;;;;;1.00;1.00;;;;;14.22;72.14;100146.09;5096771;27;45385;-68
2022/11/18 11:37:16;;;;;;;;;1.00;1.00;;;;;14.14;71.82;100149.41;5097480;27;46287;-67
2022/11/18 11:40:00;;;;;;;;;0.75;0.50;;;;;14.24;71.86;100136.94;5097907;27;45473;-67
2022/11/18 11:43:10;;;;;;;;;0.25;0.00;;;;;14.29;71.28;100139.22;5097546;27;45429;-67
2022/11/18 11:46:01;;;;;;;;;1.00;1.00;;;;;14.30;71.50;100140.94;5074458;28;45591;-67
2022/11/18 11:48:26;;;;;;;;;1.50;1.00;;;;;14.44;71.28;100140.63;4974539;28;46215;-67
2022/11/18 11:51:02;;;;;;;;;1.50;1.00;;;;;14.35;71.78;100127.97;4974652;28;45481;-67
2022/11/18 11:53:58;;;;;;;;;1.00;1.00;;;;;14.44;71.40;100148.66;4975234;28;45387;-67
2022/11/18 11:57:02;;;;;;;;;3.00;1.67;;;;;14.44;71.20;100148.66;4975079;28;45497;-67